Portada
METAR-TAF:

METAR-TAF

Aeroports :

Loei, Tailàndia

latitud: 17-27N, longitud: 101-44E, altitud: 253 m

Observació

L'informe es va fer fa 54 minuts, a les 03:00 UTC
Vent 2 kt amb direcció variable
Temperatura 29°C
Humitat 79%
Pressió 1004 hPa
Visibilitat: 8000 m
Núvols disperses a una alçada de 2500 ft
Cel ennuvolat a una alçada de 8000 ft

METAR: VTUL 180300Z VRB02KT 8000 SCT025 BKN080 29/25 Q1004 NOSIG

Hora: 10:54 (03:54 UTC)

Pronòstic

L'informe es va fer fa 4 hores i 54 minuts, a les 23:00 UTC
Pronòstic vàlid del 18 a les 00 UTC al 18 a les 24 UTC
Vent 2 kt amb direcció variable
Visibilitat: 5000 m
Escasses núvols a una alçada de 3000 ft
Núvols disperses a una alçada de 10000 ft
boirina
Evolucionant progressivament
l' 18 a les 01 UTC al 18 a les 03 UTC
Visibilitat: 9000 m

TAF: VTUL 172300Z 1800/1824 VRB02KT 5000 BR FEW030 SCT100 BECMG 1801/1803 9000 NSW

Observacions i pronòstics meteorològics de més de 4000 aeroports (METAR i TAF).

Les estacions disponibles són els punts grocs i vermells al mapa.

Posi el ratolí al punt desitjat per veure el nom de l'estació.

Feu clic per veure les observacions i els pronòstics meteorològics.

Per canviar el mapa: feu clic els botons verds amb una creu de color negre per apropar; al botó verd amb un guió per allunyar la imatge; o en les fletxes verdes per a mapes adjacents.


METAR-TAF: